createdAt,value
2017-04-04T00:00:09.701Z,22.97
2017-04-04T00:01:08.200Z,26.92
2017-04-04T00:02:07.477Z,21.17
2017-04-04T00:03:07.017Z,24.32
2017-04-04T00:04:06.272Z,20.92
2017-04-04T00:05:05.523Z,25.70
2017-04-04T00:06:04.789Z,25.13
2017-04-04T00:07:04.109Z,24.33
2017-04-04T00:08:03.350Z,21.45
2017-04-04T00:09:02.199Z,25.70
2017-04-04T00:10:00.684Z,26.18
2017-04-04T00:11:00.670Z,26.07
2017-04-04T00:11:59.184Z,24.48
2017-04-04T00:12:58.433Z,23.33
2017-04-04T00:13:56.957Z,20.15
2017-04-04T00:14:55.723Z,24.72
2017-04-04T00:15:54.966Z,24.83
2017-04-04T00:16:53.457Z,21.83
2017-04-04T00:17:52.709Z,26.43
2017-04-04T00:18:52.701Z,21.73
2017-04-04T00:19:51.944Z,26.93
2017-04-04T00:20:51.000Z,21.05
2017-04-04T00:21:50.284Z,21.78
2017-04-04T00:22:49.551Z,23.43
2017-04-04T00:23:48.008Z,22.68
2017-04-04T00:24:46.486Z,19.98
2017-04-04T00:25:45.049Z,26.23
2017-04-04T00:26:44.598Z,22.62
2017-04-04T00:27:43.128Z,23.93
2017-04-04T00:28:41.588Z,21.15
2017-04-04T00:29:40.137Z,19.85
2017-04-04T00:30:38.608Z,19.62
2017-04-04T00:31:37.093Z,22.95
2017-04-04T00:32:35.904Z,22.00
2017-04-04T00:33:34.384Z,21.28
2017-04-04T00:34:32.898Z,22.05
2017-04-04T00:35:32.129Z,24.93
2017-04-04T00:36:30.624Z,21.03
2017-04-04T00:37:29.864Z,20.87
2017-04-04T00:38:28.749Z,22.78
2017-04-04T00:39:27.216Z,21.52
2017-04-04T00:40:25.671Z,21.30
2017-04-04T00:41:24.172Z,20.15
2017-04-04T00:42:22.691Z,23.48
2017-04-04T00:43:21.213Z,21.87
2017-04-04T00:44:20.895Z,22.90
2017-04-04T00:45:19.368Z,24.18
2017-04-04T00:46:18.622Z,22.47
2017-04-04T00:47:17.882Z,19.88
2017-04-04T00:48:17.141Z,22.57
2017-04-04T00:49:16.180Z,24.93
2017-04-04T00:50:16.457Z,20.42
2017-04-04T00:51:14.997Z,23.00
2017-04-04T00:52:14.249Z,22.55
2017-04-04T00:53:13.492Z,21.05
2017-04-04T00:54:11.993Z,23.70
2017-04-04T00:55:10.497Z,21.33
2017-04-04T00:56:09.404Z,23.57
2017-04-04T00:57:07.860Z,26.07
2017-04-04T00:58:06.340Z,24.75
2017-04-04T00:59:04.817Z,21.95
2017-04-04T01:00:04.841Z,19.82
2017-04-04T01:01:04.097Z,21.60
2017-04-04T01:02:02.908Z,21.80
2017-04-04T01:03:02.143Z,20.98
2017-04-04T01:04:01.427Z,24.53
2017-04-04T01:04:59.897Z,23.75
2017-04-04T01:05:59.959Z,22.70
2017-04-04T01:06:58.488Z,21.35
2017-04-04T01:07:58.081Z,21.98
2017-04-04T01:08:57.327Z,21.03
2017-04-04T01:09:55.808Z,19.42
2017-04-04T01:10:54.299Z,22.85
2017-04-04T01:11:53.633Z,25.10
2017-04-04T01:12:52.889Z,24.30
2017-04-04T01:13:52.504Z,22.22
2017-04-04T01:14:51.272Z,22.10
2017-04-04T01:15:49.739Z,24.45
2017-04-04T01:16:48.240Z,22.58
2017-04-04T01:17:46.695Z,22.93
2017-04-04T01:18:45.169Z,21.73
2017-04-04T01:19:44.124Z,23.22
2017-04-04T01:20:42.613Z,23.72
2017-04-04T01:21:41.089Z,26.93
2017-04-04T01:22:40.325Z,25.82
2017-04-04T01:23:38.802Z,21.17
2017-04-04T01:24:38.083Z,22.12
2017-04-04T01:25:36.857Z,23.70
2017-04-04T01:26:35.332Z,22.60
2017-04-04T01:27:34.573Z,31.23
2017-04-04T01:28:33.031Z,23.73
2017-04-04T01:29:31.515Z,27.60
2017-04-04T01:30:30.001Z,22.67
2017-04-04T01:31:28.870Z,24.23
2017-04-04T01:32:27.325Z,24.88
2017-04-04T01:33:25.785Z,20.93
2017-04-04T01:34:24.266Z,26.55
2017-04-04T01:35:22.733Z,20.85
2017-04-04T01:36:21.271Z,22.75
2017-04-04T01:37:20.083Z,24.73
2017-04-04T01:38:18.557Z,22.75
2017-04-04T01:39:17.168Z,24.55
2017-04-04T01:40:16.424Z,25.63
2017-04-04T01:41:15.684Z,25.63
2017-04-04T01:42:14.917Z,23.03
2017-04-04T01:43:13.832Z,24.52
2017-04-04T01:44:13.071Z,25.83
2017-04-04T01:45:11.592Z,22.63
2017-04-04T01:46:10.088Z,23.95
2017-04-04T01:47:09.353Z,26.23
2017-04-04T01:48:07.855Z,24.15
2017-04-04T01:49:06.765Z,24.25
2017-04-04T01:50:06.089Z,24.18
2017-04-04T01:51:05.372Z,24.42
2017-04-04T01:52:04.626Z,23.55
2017-04-04T01:53:03.133Z,26.53
2017-04-04T01:54:02.389Z,21.33
2017-04-04T01:55:02.773Z,23.25
2017-04-04T01:56:01.241Z,23.75
2017-04-04T01:56:59.700Z,26.88
2017-04-04T01:57:58.181Z,22.55
2017-04-04T01:58:56.641Z,23.47
2017-04-04T01:59:55.992Z,24.80
2017-04-04T02:00:54.758Z,24.83
2017-04-04T02:01:53.996Z,30.95
2017-04-04T02:02:52.514Z,27.63
2017-04-04T02:03:51.008Z,34.02
2017-04-04T02:04:50.321Z,27.78
2017-04-04T02:05:49.584Z,33.82
2017-04-04T02:06:49.183Z,25.10
2017-04-04T02:07:47.663Z,25.30
2017-04-04T02:08:46.188Z,27.88
2017-04-04T02:09:44.828Z,28.60
2017-04-04T02:10:44.068Z,26.02
2017-04-04T02:11:42.556Z,27.42
2017-04-04T02:12:42.101Z,30.57
2017-04-04T02:13:40.560Z,28.68
2017-04-04T02:14:39.041Z,22.67
2017-04-04T02:15:37.519Z,28.92
2017-04-04T02:16:36.001Z,28.58
2017-04-04T02:17:34.454Z,27.37
2017-04-04T02:18:33.308Z,24.65
2017-04-04T02:19:32.624Z,29.75
2017-04-04T02:20:31.885Z,29.90
2017-04-04T02:21:31.133Z,30.07
2017-04-04T02:22:30.388Z,25.48
2017-04-04T02:23:29.661Z,26.00
2017-04-04T02:24:29.191Z,32.03
2017-04-04T02:25:27.677Z,33.75
2017-04-04T02:26:26.154Z,28.13
2017-04-04T02:27:25.418Z,31.03
2017-04-04T02:28:24.100Z,27.20
2017-04-04T02:29:22.575Z,25.15
2017-04-04T02:30:21.448Z,24.90
2017-04-04T02:31:20.042Z,25.75
2017-04-04T02:32:19.289Z,26.27
2017-04-04T02:33:17.756Z,23.48
2017-04-04T02:34:16.239Z,26.72
2017-04-04T02:35:15.552Z,22.13
2017-04-04T02:36:15.093Z,27.40
2017-04-04T02:37:14.354Z,30.43
2017-04-04T02:38:13.677Z,27.55
2017-04-04T02:39:12.166Z,30.57
2017-04-04T02:41:52.090Z,29.45
2017-04-04T02:45:38.403Z,30.08
2017-04-04T02:46:37.678Z,26.37
2017-04-04T02:47:36.492Z,27.78
2017-04-04T02:48:35.768Z,29.90
2017-04-04T02:49:34.318Z,29.60
2017-04-04T02:50:32.877Z,23.30
2017-04-04T02:51:31.338Z,24.13
2017-04-04T02:52:30.600Z,25.22
2017-04-04T02:53:29.453Z,26.65
2017-04-04T02:54:27.917Z,28.02
2017-04-04T02:55:26.469Z,27.88
2017-04-04T02:56:25.704Z,25.32
2017-04-04T02:57:24.950Z,31.13
2017-04-04T02:58:24.172Z,27.20
2017-04-04T02:59:23.739Z,30.05
2017-04-04T03:00:22.212Z,22.55
2017-04-04T03:01:27.297Z,27.27
2017-04-04T03:02:26.555Z,27.05
2017-04-04T03:03:25.848Z,26.33
2017-04-04T03:04:25.457Z,24.03
2017-04-04T03:05:24.689Z,30.93
2017-04-04T03:06:23.917Z,26.10
2017-04-04T03:07:22.370Z,25.47
2017-04-04T03:08:20.832Z,26.00
2017-04-04T03:09:20.076Z,30.13
2017-04-04T03:10:18.915Z,31.60
2017-04-04T03:11:17.449Z,26.88
2017-04-04T03:12:15.924Z,29.55
2017-04-04T03:13:14.400Z,27.38
2017-04-04T03:14:12.903Z,31.93
2017-04-04T03:15:12.253Z,26.88
2017-04-04T03:16:11.028Z,25.87
2017-04-04T03:17:09.500Z,30.83
2017-04-04T03:18:08.305Z,28.88
2017-04-04T03:19:06.773Z,31.13
2017-04-04T03:20:06.008Z,28.37
2017-04-04T03:21:04.464Z,24.80
2017-04-04T03:22:03.239Z,28.58
2017-04-04T03:23:02.468Z,29.87
2017-04-04T03:24:00.928Z,24.28
2017-04-04T03:24:59.388Z,29.65
2017-04-04T03:25:57.900Z,29.10
2017-04-04T03:26:56.354Z,26.10
2017-04-04T03:27:55.982Z,27.80
2017-04-04T03:28:54.435Z,30.62
2017-04-04T03:29:53.038Z,28.85
2017-04-04T03:30:51.531Z,23.82
2017-04-04T03:31:49.988Z,33.02
2017-04-04T03:32:48.440Z,25.67
2017-04-04T03:33:47.284Z,25.85
2017-04-04T03:34:45.756Z,33.35
2017-04-04T03:35:44.956Z,23.12
2017-04-04T03:36:44.920Z,22.68
2017-04-04T03:37:44.153Z,23.45
2017-04-04T03:38:43.405Z,29.37
2017-04-04T03:39:42.197Z,27.20
2017-04-04T03:40:40.660Z,27.05
2017-04-04T03:41:39.108Z,33.77
2017-04-04T03:42:38.332Z,29.65
2017-04-04T03:43:37.555Z,29.30
2017-04-04T03:44:36.036Z,35.87
2017-04-04T03:45:35.018Z,27.60
2017-04-04T03:46:33.484Z,34.33
2017-04-04T03:47:31.945Z,28.73
2017-04-04T03:48:30.400Z,31.85
2017-04-04T03:49:28.856Z,31.02
2017-04-04T03:50:28.104Z,25.83
2017-04-04T03:51:27.736Z,33.70
2017-04-04T03:52:26.188Z,24.45
2017-04-04T03:53:24.668Z,25.98
2017-04-04T03:54:23.885Z,26.85
2017-04-04T03:55:22.340Z,26.97
2017-04-04T03:56:20.834Z,25.38
2017-04-04T03:57:20.369Z,28.55
2017-04-04T03:58:20.643Z,29.00
2017-04-04T03:59:19.864Z,33.95
2017-04-04T04:00:19.081Z,26.52
2017-04-04T04:01:18.304Z,29.65
2017-04-04T04:02:16.781Z,24.25
2017-04-04T04:03:15.662Z,27.65
2017-04-04T04:04:14.115Z,31.85
2017-04-04T04:05:13.340Z,29.85
2017-04-04T04:06:11.844Z,29.57
2017-04-04T04:07:10.382Z,33.83
2017-04-04T04:08:08.851Z,24.95
2017-04-04T04:09:08.380Z,26.90
2017-04-04T04:10:06.974Z,29.33
2017-04-04T04:11:05.544Z,28.55
2017-04-04T04:12:04.032Z,30.12
2017-04-04T04:13:03.479Z,28.15
2017-04-04T04:14:02.088Z,30.18
2017-04-04T04:15:00.928Z,30.32
2017-04-04T04:15:59.480Z,35.78
2017-04-04T04:16:58.803Z,33.27
2017-04-04T04:17:57.277Z,32.15
2017-04-04T04:18:55.745Z,32.43
2017-04-04T04:19:54.408Z,31.57
2017-04-04T04:20:54.804Z,33.52
2017-04-04T04:21:53.272Z,37.63
2017-04-04T04:22:53.431Z,35.22
2017-04-04T04:23:52.066Z,27.17
2017-04-04T04:24:50.677Z,34.47
2017-04-04T04:25:49.149Z,35.52
2017-04-04T04:26:48.700Z,36.77
2017-04-04T04:27:48.056Z,34.47
2017-04-04T04:28:46.672Z,30.93
2017-04-04T04:29:45.908Z,30.20
2017-04-04T04:30:44.493Z,33.58
2017-04-04T04:31:43.963Z,34.98
2017-04-04T04:32:42.891Z,36.60
2017-04-04T04:33:41.488Z,32.13
2017-04-04T04:34:40.068Z,30.35
2017-04-04T04:35:39.583Z,43.33
2017-04-04T04:36:39.257Z,34.15
2017-04-04T04:37:37.904Z,34.28
2017-04-04T04:38:36.912Z,42.55
2017-04-04T04:39:36.472Z,34.70
2017-04-04T04:40:35.092Z,41.43
2017-04-04T04:41:34.549Z,37.57
2017-04-04T04:42:33.346Z,39.17
2017-04-04T04:43:32.739Z,36.82
2017-04-04T04:44:32.648Z,38.42
2017-04-04T04:45:31.317Z,33.48
2017-04-04T04:46:31.040Z,29.02
2017-04-04T04:47:29.691Z,40.82
2017-04-04T04:48:28.392Z,32.35
2017-04-04T04:49:27.219Z,27.65
2017-04-04T04:50:26.229Z,36.73
2017-04-04T04:51:24.946Z,36.52
2017-04-04T04:52:24.348Z,36.05
2017-04-04T04:53:23.817Z,43.18
2017-04-04T04:54:24.524Z,40.38
2017-04-04T04:55:23.144Z,32.35
2017-04-04T04:56:22.301Z,31.27
2017-04-04T04:57:21.584Z,34.28
2017-04-04T04:58:20.816Z,32.18
2017-04-04T04:59:20.114Z,36.42
2017-04-04T05:00:18.633Z,41.27
2017-04-04T05:01:17.348Z,34.73
2017-04-04T05:02:16.217Z,41.22
2017-04-04T05:03:15.459Z,29.10
2017-04-04T05:04:14.724Z,38.68
2017-04-04T05:05:14.289Z,31.57
2017-04-04T05:06:12.801Z,48.93
2017-04-04T05:07:12.036Z,39.55
2017-04-04T05:08:10.897Z,42.03
2017-04-04T05:09:09.367Z,34.08
2017-04-04T05:10:07.840Z,37.15
2017-04-04T05:11:06.297Z,33.25
2017-04-04T05:12:04.749Z,39.73
2017-04-04T05:13:03.768Z,40.22
2017-04-04T05:14:03.326Z,29.73
2017-04-04T05:15:01.821Z,39.03
2017-04-04T05:16:01.138Z,34.15
2017-04-04T05:16:59.656Z,45.65
2017-04-04T05:17:59.552Z,37.15
2017-04-04T05:18:58.032Z,35.57
2017-04-04T05:19:56.868Z,33.13
2017-04-04T05:20:56.105Z,34.68
2017-04-04T05:21:55.323Z,43.90
2017-04-04T05:22:54.548Z,40.73
2017-04-04T05:23:53.022Z,44.62
2017-04-04T05:24:51.476Z,38.05
2017-04-04T05:25:50.262Z,37.92
2017-04-04T05:26:49.488Z,33.73
2017-04-04T05:27:48.711Z,33.62
2017-04-04T05:28:47.172Z,38.58
2017-04-04T05:29:47.183Z,29.78
2017-04-04T05:30:45.699Z,33.98
2017-04-04T05:31:44.489Z,38.00
2017-04-04T05:32:43.748Z,49.37
2017-04-04T05:33:42.989Z,36.00
2017-04-04T05:34:42.244Z,37.02
2017-04-04T05:35:41.482Z,39.40
2017-04-04T05:36:40.708Z,50.10
2017-04-04T05:37:39.575Z,46.48
2017-04-04T05:38:38.035Z,47.37
2017-04-04T05:39:37.306Z,44.65
2017-04-04T05:40:35.860Z,42.92
2017-04-04T05:41:34.361Z,45.57
2017-04-04T05:42:32.830Z,39.35
2017-04-04T05:43:32.420Z,39.23
2017-04-04T05:44:30.889Z,35.97
2017-04-04T05:45:29.357Z,27.77
2017-04-04T05:46:27.988Z,42.25
2017-04-04T05:47:26.481Z,42.40
2017-04-04T05:48:24.972Z,36.15
2017-04-04T05:49:23.825Z,42.92
2017-04-04T05:50:22.310Z,46.63
2017-04-04T05:51:20.817Z,38.55
2017-04-04T05:52:19.296Z,35.55
2017-04-04T05:53:17.805Z,32.73
2017-04-04T05:54:17.873Z,33.75
2017-04-04T05:55:16.660Z,59.43
2017-04-04T05:56:15.149Z,52.30
2017-04-04T05:57:15.189Z,38.88
2017-04-04T05:58:13.656Z,43.93
2017-04-04T05:59:12.122Z,38.67
2017-04-04T06:00:10.636Z,42.65
2017-04-04T06:01:10.209Z,39.62
2017-04-04T06:02:08.700Z,46.43
2017-04-04T06:03:07.169Z,39.30
2017-04-04T06:04:05.638Z,30.10
2017-04-04T06:05:04.165Z,50.57
2017-04-04T06:06:03.069Z,52.20
2017-04-04T06:07:01.930Z,44.23
2017-04-04T06:08:01.189Z,49.90
2017-04-04T06:08:59.684Z,39.85
2017-04-04T06:09:58.160Z,37.13
2017-04-04T06:10:56.689Z,43.80
2017-04-04T06:11:55.161Z,42.57
2017-04-04T06:12:53.942Z,49.57
2017-04-04T06:13:52.851Z,42.92
2017-04-04T06:14:51.342Z,30.00
2017-04-04T06:15:49.832Z,43.02
2017-04-04T06:16:48.321Z,42.27
2017-04-04T06:17:47.563Z,31.63
2017-04-04T06:18:46.336Z,41.37
2017-04-04T06:19:44.822Z,34.82
2017-04-04T06:20:43.312Z,31.27
2017-04-04T06:21:41.897Z,33.38
2017-04-04T06:22:41.132Z,41.72
2017-04-04T06:23:39.605Z,44.43
2017-04-04T06:24:38.380Z,39.53
2017-04-04T06:25:37.621Z,53.12
2017-04-04T06:26:36.561Z,35.95
2017-04-04T06:27:35.056Z,33.08
2017-04-04T06:28:34.289Z,31.47
2017-04-04T06:29:32.761Z,40.07
2017-04-04T06:30:31.632Z,44.63
2017-04-04T06:31:30.920Z,33.73
2017-04-04T06:32:29.427Z,43.30
2017-04-04T06:33:28.665Z,43.20
2017-04-04T06:34:27.159Z,31.52
2017-04-04T06:35:26.419Z,35.50
2017-04-04T06:36:26.713Z,37.92
2017-04-04T06:37:25.990Z,40.42
2017-04-04T06:38:24.465Z,42.18
2017-04-04T06:39:23.931Z,39.25
2017-04-04T06:40:22.421Z,40.25
2017-04-04T06:41:20.953Z,37.32
2017-04-04T06:42:20.573Z,43.70
2017-04-04T06:43:19.044Z,42.62
2017-04-04T06:44:17.532Z,34.48
2017-04-04T06:45:16.008Z,40.90
2017-04-04T06:46:15.259Z,33.48
2017-04-04T06:47:13.765Z,37.83
2017-04-04T06:48:13.362Z,53.65
2017-04-04T06:49:12.580Z,41.35
2017-04-04T06:50:11.078Z,38.60
2017-04-04T06:51:09.544Z,41.27
2017-04-04T06:52:08.100Z,42.35
2017-04-04T06:53:07.353Z,36.43
2017-04-04T06:54:06.146Z,44.62
2017-04-04T06:55:05.390Z,32.05
2017-04-04T06:56:03.864Z,38.67
2017-04-04T06:57:02.389Z,32.82
2017-04-04T06:58:00.874Z,30.63
2017-04-04T06:59:00.097Z,27.48
2017-04-04T06:59:58.882Z,36.77
2017-04-04T07:00:57.357Z,34.65
2017-04-04T07:01:55.866Z,43.05
2017-04-04T07:02:55.129Z,41.88
2017-04-04T07:03:54.386Z,40.82
2017-04-04T07:04:52.848Z,36.52
2017-04-04T07:05:51.753Z,38.35
2017-04-04T07:06:51.020Z,42.75
2017-04-04T07:07:49.528Z,33.70
2017-04-04T07:08:48.776Z,30.40
2017-04-04T07:09:47.242Z,44.45
2017-04-04T07:10:46.493Z,37.23
2017-04-04T07:11:46.016Z,32.28
2017-04-04T07:12:45.049Z,42.68
2017-04-04T07:13:44.302Z,45.05
2017-04-04T07:14:43.567Z,36.42
2017-04-04T07:15:42.805Z,33.67
2017-04-04T07:16:41.293Z,32.85
2017-04-04T07:17:40.158Z,31.47
2017-04-04T07:18:38.644Z,57.85
2017-04-04T07:19:38.654Z,37.95
2017-04-04T07:20:38.061Z,28.22
2017-04-04T07:21:37.313Z,32.57
2017-04-04T07:22:35.828Z,34.48
2017-04-04T07:23:35.457Z,48.65
2017-04-04T07:24:34.710Z,43.10
2017-04-04T07:25:33.984Z,32.33
2017-04-04T07:26:32.440Z,35.88
2017-04-04T07:27:30.920Z,34.85
2017-04-04T07:28:29.397Z,27.02
2017-04-04T07:29:28.157Z,30.47
2017-04-04T07:30:26.665Z,36.35
2017-04-04T07:31:25.177Z,34.82
2017-04-04T07:32:23.648Z,28.07
2017-04-04T07:33:22.161Z,26.83
2017-04-04T07:34:20.628Z,33.53
2017-04-04T07:35:19.481Z,37.75
2017-04-04T07:36:17.942Z,27.62
2017-04-04T07:37:17.189Z,35.57
2017-04-04T07:38:15.664Z,26.87
2017-04-04T07:39:15.429Z,32.43
2017-04-04T07:40:14.660Z,26.60
2017-04-04T07:41:13.440Z,31.28
2017-04-04T07:42:12.690Z,30.05
2017-04-04T07:43:11.964Z,36.15
2017-04-04T07:44:11.209Z,30.52
2017-04-04T07:45:09.668Z,26.10
2017-04-04T07:46:08.146Z,24.13
2017-04-04T07:47:08.413Z,23.82
2017-04-04T07:48:06.933Z,32.92
2017-04-04T07:49:05.411Z,36.30
2017-04-04T07:50:04.709Z,31.27
2017-04-04T07:51:03.184Z,30.68
2017-04-04T07:52:01.711Z,25.32
2017-04-04T07:53:01.271Z,26.72
2017-04-04T07:54:00.517Z,36.62
2017-04-04T07:54:59.015Z,24.55
2017-04-04T07:55:57.503Z,26.22
2017-04-04T07:56:55.992Z,22.67
2017-04-04T07:57:55.252Z,29.08
2017-04-04T07:58:54.821Z,24.90
2017-04-04T07:59:53.300Z,28.22
2017-04-04T08:00:51.778Z,29.43
2017-04-04T08:01:51.068Z,23.23
2017-04-04T08:02:50.325Z,24.92
2017-04-04T08:03:48.808Z,28.03
2017-04-04T08:04:49.095Z,28.22
2017-04-04T08:05:48.326Z,25.92
2017-04-04T08:06:47.567Z,22.60
2017-04-04T08:07:46.038Z,27.80
2017-04-04T08:08:44.512Z,19.38
2017-04-04T08:09:42.992Z,28.20
2017-04-04T08:10:42.501Z,27.28
2017-04-04T08:11:40.981Z,30.55
2017-04-04T08:12:39.452Z,23.50
2017-04-04T08:13:37.925Z,25.08
2017-04-04T08:14:36.400Z,28.90
2017-04-04T08:15:34.903Z,24.80
2017-04-04T08:16:34.565Z,30.43
2017-04-04T08:17:33.037Z,23.32
2017-04-04T08:18:32.260Z,24.52
2017-04-04T08:19:31.510Z,31.08
2017-04-04T08:20:29.981Z,28.63
2017-04-04T08:21:28.452Z,26.83
2017-04-04T08:22:28.004Z,23.53
2017-04-04T08:23:26.476Z,26.27
2017-04-04T08:24:25.704Z,31.70
2017-04-04T08:25:24.946Z,26.53
2017-04-04T08:26:24.213Z,24.43
2017-04-04T08:27:22.688Z,24.92
2017-04-04T08:28:21.456Z,25.10
2017-04-04T08:29:19.945Z,25.33
2017-04-04T08:30:18.452Z,27.63
2017-04-04T08:31:16.928Z,31.37
2017-04-04T08:32:16.208Z,30.85
2017-04-04T08:33:14.718Z,25.03
2017-04-04T08:34:13.489Z,26.67
2017-04-04T08:35:12.120Z,31.03
2017-04-04T08:36:10.623Z,40.05
2017-04-04T08:37:10.622Z,32.02
2017-04-04T08:38:09.087Z,30.12
2017-04-04T08:39:07.576Z,27.55
2017-04-04T08:40:07.232Z,32.45
2017-04-04T08:41:06.486Z,33.70
2017-04-04T08:42:04.985Z,27.28
2017-04-04T08:43:03.470Z,31.28
2017-04-04T08:44:01.940Z,30.03
2017-04-04T08:45:00.446Z,27.32
2017-04-04T08:46:00.070Z,22.95
2017-04-04T08:46:58.573Z,31.92
2017-04-04T08:47:57.845Z,24.37
2017-04-04T08:48:56.292Z,29.22
2017-04-04T08:49:54.749Z,26.70
2017-04-04T08:50:53.208Z,25.67
2017-04-04T08:51:52.798Z,31.97
2017-04-04T08:52:52.033Z,22.93
2017-04-04T08:53:51.272Z,35.93
2017-04-04T08:54:49.756Z,30.30
2017-04-04T08:55:49.742Z,27.37
2017-04-04T08:56:48.240Z,26.73
2017-04-04T08:57:47.874Z,27.32
2017-04-04T08:58:46.345Z,22.53
2017-04-04T08:59:44.808Z,33.50
2017-04-04T09:00:43.276Z,24.57
2017-04-04T09:01:42.604Z,28.17
2017-04-04T09:02:41.856Z,27.55
2017-04-04T09:03:40.640Z,25.57
2017-04-04T09:04:40.655Z,30.98
2017-04-04T09:05:39.902Z,25.25
2017-04-04T09:06:38.380Z,29.78
2017-04-04T09:07:36.873Z,25.30
2017-04-04T09:08:36.180Z,23.28
2017-04-04T09:09:35.813Z,25.33
2017-04-04T09:10:35.064Z,30.30
2017-04-04T09:11:33.564Z,37.67
2017-04-04T09:12:32.026Z,26.75
2017-04-04T09:13:31.512Z,23.03
2017-04-04T09:14:29.994Z,26.67
2017-04-04T09:15:28.860Z,35.25
2017-04-04T09:16:27.337Z,25.20
2017-04-04T09:17:25.817Z,31.02
2017-04-04T09:18:25.057Z,27.77
2017-04-04T09:19:24.316Z,29.08
2017-04-04T09:20:23.567Z,27.40
2017-04-04T09:21:22.408Z,24.87
2017-04-04T09:22:20.881Z,27.50
2017-04-04T09:23:19.346Z,35.08
2017-04-04T09:24:17.812Z,29.02
2017-04-04T09:25:16.308Z,23.97
2017-04-04T09:26:15.539Z,39.90
2017-04-04T09:27:14.321Z,24.92
2017-04-04T09:28:12.776Z,34.07
2017-04-04T09:29:12.037Z,31.28
2017-04-04T09:30:11.301Z,30.20
2017-04-04T09:31:10.606Z,41.13
2017-04-04T09:32:09.100Z,33.23
2017-04-04T09:33:07.884Z,26.62
2017-04-04T09:34:06.369Z,34.68
2017-04-04T09:35:04.915Z,32.65
2017-04-04T09:36:03.397Z,24.23
2017-04-04T09:37:01.885Z,34.60
2017-04-04T09:38:01.116Z,34.13
2017-04-04T09:39:00.712Z,38.55
2017-04-04T09:39:59.164Z,46.98
2017-04-04T09:40:57.629Z,33.17
2017-04-04T09:41:56.887Z,27.80
2017-04-04T09:42:55.387Z,29.85
2017-04-04T09:43:53.840Z,24.90
2017-04-04T09:44:52.631Z,37.12
2017-04-04T09:45:51.117Z,31.82
2017-04-04T09:46:50.354Z,26.03
2017-04-04T09:47:49.609Z,41.58
2017-04-04T09:48:48.877Z,35.52
2017-04-04T09:49:48.110Z,30.02
2017-04-04T09:50:47.689Z,27.53
2017-04-04T09:51:46.206Z,28.52
2017-04-04T09:52:44.692Z,32.15
2017-04-04T09:53:43.929Z,28.08
2017-04-04T09:54:42.451Z,26.27
2017-04-04T09:55:41.697Z,28.97
2017-04-04T09:56:40.454Z,29.33
2017-04-04T09:57:38.950Z,25.90
2017-04-04T09:58:38.211Z,27.12
2017-04-04T09:59:37.449Z,34.78
2017-04-04T10:00:35.979Z,29.55
2017-04-04T10:01:34.478Z,31.35
2017-04-04T10:02:33.288Z,28.57
2017-04-04T10:03:31.779Z,28.97
2017-04-04T10:04:30.246Z,24.08
2017-04-04T10:05:29.503Z,27.38
2017-04-04T10:06:28.740Z,33.03
2017-04-04T10:07:27.220Z,35.48
2017-04-04T10:08:26.014Z,37.07
2017-04-04T10:09:24.518Z,35.67
2017-04-04T10:10:23.765Z,34.80
2017-04-04T10:11:22.249Z,31.15
2017-04-04T10:12:20.748Z,37.93
2017-04-04T10:13:19.233Z,30.37
2017-04-04T10:14:18.037Z,44.32
2017-04-04T10:15:16.777Z,42.95
2017-04-04T10:16:15.267Z,35.93
2017-04-04T10:17:14.529Z,35.63
2017-04-04T10:18:13.785Z,33.77
2017-04-04T10:19:13.045Z,39.75
2017-04-04T10:20:11.897Z,33.83
2017-04-04T10:21:11.152Z,34.58
2017-04-04T10:22:10.389Z,34.88
2017-04-04T10:23:10.373Z,38.53
2017-04-04T10:24:08.838Z,42.15
2017-04-04T10:25:08.142Z,51.77
2017-04-04T10:26:07.657Z,58.93
2017-04-04T10:27:06.900Z,48.93
2017-04-04T10:28:05.377Z,35.68
2017-04-04T10:29:03.844Z,35.47
2017-04-04T10:30:03.079Z,43.30
2017-04-04T10:31:01.557Z,50.63
2017-04-04T10:32:01.145Z,37.50
2017-04-04T10:33:00.369Z,34.75
2017-04-04T10:33:59.608Z,39.18
2017-04-04T10:34:58.076Z,56.48
2017-04-04T10:35:56.552Z,45.20
2017-04-04T10:36:55.038Z,39.32
2017-04-04T10:37:54.574Z,37.25
2017-04-04T10:38:53.040Z,39.52
2017-04-04T10:39:51.513Z,33.77
2017-04-04T10:40:50.791Z,38.80
2017-04-04T10:41:49.268Z,34.25
2017-04-04T10:42:47.728Z,45.67
2017-04-04T10:43:46.521Z,52.17
2017-04-04T10:44:45.020Z,34.12
2017-04-04T10:45:44.286Z,31.75
2017-04-04T10:46:42.772Z,42.37
2017-04-04T10:47:42.004Z,36.05
2017-04-04T10:48:40.481Z,33.38
2017-04-04T10:49:39.361Z,34.25
2017-04-04T10:50:38.620Z,36.48
2017-04-04T10:51:37.117Z,42.10
2017-04-04T10:52:35.588Z,31.75
2017-04-04T10:53:34.865Z,31.48
2017-04-04T10:54:33.373Z,32.68
2017-04-04T10:55:33.009Z,39.82
2017-04-04T10:56:31.519Z,39.90
2017-04-04T10:57:30.758Z,46.77
2017-04-04T10:58:29.238Z,34.53
2017-04-04T10:59:28.484Z,34.00
2017-04-04T11:00:27.010Z,42.58
2017-04-04T11:01:26.564Z,35.73
2017-04-04T11:02:25.093Z,31.08
2017-04-04T11:03:24.343Z,35.17
2017-04-04T11:04:23.655Z,35.32
2017-04-04T11:05:22.909Z,38.65
2017-04-04T11:06:21.389Z,33.50
2017-04-04T11:07:21.859Z,37.30
2017-04-04T11:08:20.378Z,33.13
2017-04-04T11:09:19.621Z,29.82
2017-04-04T11:10:18.097Z,33.82
2017-04-04T11:11:16.580Z,32.35
2017-04-04T11:12:15.877Z,33.58
2017-04-04T11:13:15.508Z,32.50
2017-04-04T11:14:14.004Z,32.88
2017-04-04T11:15:13.254Z,36.27
2017-04-04T11:16:11.724Z,35.03
2017-04-04T11:17:11.005Z,30.28
2017-04-04T11:18:09.489Z,40.13
2017-04-04T11:19:08.275Z,38.53
2017-04-04T11:20:07.554Z,38.87
2017-04-04T11:21:06.033Z,30.53
2017-04-04T11:22:05.330Z,42.70
2017-04-04T11:23:03.860Z,30.97
2017-04-04T11:24:02.348Z,34.37
2017-04-04T11:25:01.894Z,36.78
2017-04-04T11:26:00.381Z,34.73
2017-04-04T11:26:59.623Z,43.80
2017-04-04T11:27:58.084Z,36.05
2017-04-04T11:28:56.572Z,42.03
2017-04-04T11:29:55.112Z,38.45
2017-04-04T11:30:54.019Z,38.73
2017-04-04T11:31:52.528Z,35.57
2017-04-04T11:32:51.765Z,39.72
2017-04-04T11:33:50.250Z,35.88
2017-04-04T11:34:49.512Z,34.85
2017-04-04T11:35:48.041Z,33.48
2017-04-04T11:36:47.673Z,34.43
2017-04-04T11:37:46.135Z,33.63
2017-04-04T11:38:44.684Z,32.12
2017-04-04T11:39:43.928Z,35.20
2017-04-04T11:40:43.203Z,30.22
2017-04-04T11:41:41.704Z,30.60
2017-04-04T11:42:40.649Z,37.28
2017-04-04T11:43:39.136Z,34.65
2017-04-04T11:44:38.372Z,30.23
2017-04-04T11:45:37.607Z,37.27
2017-04-04T11:46:36.098Z,31.00
2017-04-04T11:47:34.589Z,34.23
2017-04-04T11:48:33.357Z,32.75
2017-04-04T11:49:31.831Z,33.87
2017-04-04T11:50:30.345Z,29.92
2017-04-04T11:51:28.816Z,32.18
2017-04-04T11:52:27.364Z,31.92
2017-04-04T11:53:26.685Z,29.43
2017-04-04T11:54:26.284Z,25.23
2017-04-04T11:55:24.753Z,31.07
2017-04-04T11:56:23.255Z,32.05
2017-04-04T11:57:22.510Z,27.98
2017-04-04T11:58:21.001Z,27.90
2017-04-04T11:59:20.281Z,30.55
2017-04-04T12:00:19.832Z,30.82
2017-04-04T12:01:18.301Z,32.30
2017-04-04T12:02:16.772Z,27.48
2017-04-04T12:03:15.282Z,23.88
2017-04-04T12:04:14.533Z,26.00
2017-04-04T12:05:13.119Z,30.58
2017-04-04T12:06:11.953Z,24.90
2017-04-04T12:07:10.449Z,24.73
2017-04-04T12:08:10.473Z,26.68
2017-04-04T12:09:09.726Z,23.38
2017-04-04T12:10:08.224Z,26.45
2017-04-04T12:11:06.712Z,25.63
2017-04-04T12:12:05.520Z,24.67
2017-04-04T12:13:03.991Z,22.28
2017-04-04T12:14:02.498Z,25.70
2017-04-04T12:15:00.973Z,29.70
2017-04-04T12:16:00.247Z,25.82
2017-04-04T12:16:59.467Z,24.23
2017-04-04T12:17:58.300Z,22.67
2017-04-04T12:18:57.553Z,25.55
2017-04-04T12:19:57.547Z,22.05
2017-04-04T12:20:56.026Z,30.07
2017-04-04T12:21:54.546Z,26.18
2017-04-04T12:22:53.049Z,26.53
2017-04-04T12:23:51.899Z,26.73
2017-04-04T12:24:50.373Z,26.85
2017-04-04T12:25:48.861Z,29.83
2017-04-04T12:26:47.374Z,25.18
2017-04-04T12:27:45.865Z,29.95
2017-04-04T12:28:45.216Z,31.38
2017-04-04T12:29:44.123Z,22.20
2017-04-04T12:30:43.407Z,30.30
2017-04-04T12:31:41.877Z,31.22
2017-04-04T12:32:40.353Z,29.48
2017-04-04T12:33:38.863Z,24.65
2017-04-04T12:34:37.404Z,20.43
2017-04-04T12:35:37.778Z,23.42
2017-04-04T12:36:37.056Z,23.07
2017-04-04T12:37:35.541Z,23.60
2017-04-04T12:38:34.012Z,22.02
2017-04-04T12:39:32.492Z,26.43
2017-04-04T12:40:31.792Z,22.23
2017-04-04T12:41:31.361Z,19.85
2017-04-04T12:42:29.839Z,24.47